sensor_id;sensor_type;location;lat;lon;timestamp;P1;durP1;ratioP1;P2;durP2;ratioP2
4424;SDS011;2225;53.568;13.266;2023-06-04T00:02:19;19.07;;;9.80;;
4424;SDS011;2225;53.568;13.266;2023-06-04T00:04:47;15.90;;;8.37;;
4424;SDS011;2225;53.568;13.266;2023-06-04T00:07:14;10.23;;;4.47;;
4424;SDS011;2225;53.568;13.266;2023-06-04T00:09:41;10.40;;;4.13;;
4424;SDS011;2225;53.568;13.266;2023-06-04T00:12:08;8.40;;;3.67;;
4424;SDS011;2225;53.568;13.266;2023-06-04T00:14:35;7.23;;;2.57;;
4424;SDS011;2225;53.568;13.266;2023-06-04T00:17:02;7.70;;;2.50;;
4424;SDS011;2225;53.568;13.266;2023-06-04T00:19:29;13.80;;;2.97;;
4424;SDS011;2225;53.568;13.266;2023-06-04T00:21:56;10.20;;;2.97;;
4424;SDS011;2225;53.568;13.266;2023-06-04T00:24:23;7.50;;;2.20;;
4424;SDS011;2225;53.568;13.266;2023-06-04T00:26:50;6.50;;;1.97;;
4424;SDS011;2225;53.568;13.266;2023-06-04T00:29:17;8.93;;;2.30;;
4424;SDS011;2225;53.568;13.266;2023-06-04T00:31:44;6.97;;;1.80;;
4424;SDS011;2225;53.568;13.266;2023-06-04T00:34:11;7.77;;;2.83;;
4424;SDS011;2225;53.568;13.266;2023-06-04T00:36:39;12.50;;;2.70;;
4424;SDS011;2225;53.568;13.266;2023-06-04T00:39:06;8.33;;;2.03;;
4424;SDS011;2225;53.568;13.266;2023-06-04T00:41:33;20.93;;;2.47;;
4424;SDS011;2225;53.568;13.266;2023-06-04T00:44:00;6.97;;;2.00;;
4424;SDS011;2225;53.568;13.266;2023-06-04T00:46:28;6.43;;;1.93;;
4424;SDS011;2225;53.568;13.266;2023-06-04T00:48:55;6.90;;;2.43;;
4424;SDS011;2225;53.568;13.266;2023-06-04T00:51:22;9.33;;;3.20;;
4424;SDS011;2225;53.568;13.266;2023-06-04T00:53:50;9.93;;;2.27;;
4424;SDS011;2225;53.568;13.266;2023-06-04T00:56:18;6.30;;;2.27;;
4424;SDS011;2225;53.568;13.266;2023-06-04T00:58:45;7.03;;;2.90;;
4424;SDS011;2225;53.568;13.266;2023-06-04T01:01:22;9.70;;;2.90;;
4424;SDS011;2225;53.568;13.266;2023-06-04T01:04:29;11.90;;;3.00;;
4424;SDS011;2225;53.568;13.266;2023-06-04T01:07:04;13.13;;;7.30;;
4424;SDS011;2225;53.568;13.266;2023-06-04T01:09:33;11.80;;;5.63;;
4424;SDS011;2225;53.568;13.266;2023-06-04T01:12:05;9.80;;;3.83;;
4424;SDS011;2225;53.568;13.266;2023-06-04T01:14:33;8.07;;;2.60;;
4424;SDS011;2225;53.568;13.266;2023-06-04T01:22:17;8.40;;;2.33;;
4424;SDS011;2225;53.568;13.266;2023-06-04T01:25:18;8.97;;;2.10;;
4424;SDS011;2225;53.568;13.266;2023-06-04T01:27:50;7.53;;;2.03;;
4424;SDS011;2225;53.568;13.266;2023-06-04T01:30:23;6.20;;;1.90;;
4424;SDS011;2225;53.568;13.266;2023-06-04T01:32:59;6.53;;;2.20;;
4424;SDS011;2225;53.568;13.266;2023-06-04T01:35:27;6.20;;;2.07;;
4424;SDS011;2225;53.568;13.266;2023-06-04T01:37:57;7.87;;;2.27;;
4424;SDS011;2225;53.568;13.266;2023-06-04T01:40:24;6.03;;;2.03;;
4424;SDS011;2225;53.568;13.266;2023-06-04T01:42:52;10.20;;;2.63;;
4424;SDS011;2225;53.568;13.266;2023-06-04T01:45:20;6.40;;;1.70;;
4424;SDS011;2225;53.568;13.266;2023-06-04T01:47:48;7.60;;;2.57;;
4424;SDS011;2225;53.568;13.266;2023-06-04T01:50:16;7.47;;;2.07;;
4424;SDS011;2225;53.568;13.266;2023-06-04T01:52:43;6.03;;;1.87;;
4424;SDS011;2225;53.568;13.266;2023-06-04T01:55:11;6.80;;;2.60;;
4424;SDS011;2225;53.568;13.266;2023-06-04T01:57:41;7.17;;;2.13;;
4424;SDS011;2225;53.568;13.266;2023-06-04T02:00:13;7.53;;;2.03;;
4424;SDS011;2225;53.568;13.266;2023-06-04T02:02:42;6.80;;;2.70;;
4424;SDS011;2225;53.568;13.266;2023-06-04T02:05:14;8.70;;;3.30;;
4424;SDS011;2225;53.568;13.266;2023-06-04T02:07:43;11.37;;;3.13;;
4424;SDS011;2225;53.568;13.266;2023-06-04T02:10:12;7.30;;;2.63;;
4424;SDS011;2225;53.568;13.266;2023-06-04T02:12:41;12.83;;;2.90;;
4424;SDS011;2225;53.568;13.266;2023-06-04T02:15:29;8.07;;;3.03;;
4424;SDS011;2225;53.568;13.266;2023-06-04T02:17:59;8.40;;;2.80;;
4424;SDS011;2225;53.568;13.266;2023-06-04T02:20:45;7.80;;;3.17;;
4424;SDS011;2225;53.568;13.266;2023-06-04T02:23:14;8.80;;;3.30;;
4424;SDS011;2225;53.568;13.266;2023-06-04T02:25:42;9.33;;;3.40;;
4424;SDS011;2225;53.568;13.266;2023-06-04T02:28:13;9.20;;;4.10;;
4424;SDS011;2225;53.568;13.266;2023-06-04T02:30:41;9.90;;;3.90;;
4424;SDS011;2225;53.568;13.266;2023-06-04T02:33:09;10.30;;;4.03;;
4424;SDS011;2225;53.568;13.266;2023-06-04T02:35:36;13.97;;;4.53;;
4424;SDS011;2225;53.568;13.266;2023-06-04T02:38:04;12.20;;;4.17;;
4424;SDS011;2225;53.568;13.266;2023-06-04T02:40:31;9.57;;;4.03;;
4424;SDS011;2225;53.568;13.266;2023-06-04T02:42:58;15.63;;;6.07;;
4424;SDS011;2225;53.568;13.266;2023-06-04T02:45:25;13.87;;;5.70;;
4424;SDS011;2225;53.568;13.266;2023-06-04T02:47:52;15.27;;;3.67;;
4424;SDS011;2225;53.568;13.266;2023-06-04T02:50:19;12.33;;;3.00;;
4424;SDS011;2225;53.568;13.266;2023-06-04T02:52:46;6.63;;;2.60;;
4424;SDS011;2225;53.568;13.266;2023-06-04T02:55:13;10.70;;;2.40;;
4424;SDS011;2225;53.568;13.266;2023-06-04T02:57:41;13.90;;;2.47;;
4424;SDS011;2225;53.568;13.266;2023-06-04T03:00:10;9.03;;;2.60;;
4424;SDS011;2225;53.568;13.266;2023-06-04T03:02:43;8.03;;;2.03;;
4424;SDS011;2225;53.568;13.266;2023-06-04T03:05:14;7.00;;;2.13;;
4424;SDS011;2225;53.568;13.266;2023-06-04T03:07:44;7.03;;;2.57;;
4424;SDS011;2225;53.568;13.266;2023-06-04T03:10:13;7.70;;;2.23;;
4424;SDS011;2225;53.568;13.266;2023-06-04T03:12:41;8.07;;;2.40;;
4424;SDS011;2225;53.568;13.266;2023-06-04T03:15:08;7.03;;;2.50;;
4424;SDS011;2225;53.568;13.266;2023-06-04T03:17:36;12.50;;;2.80;;
4424;SDS011;2225;53.568;13.266;2023-06-04T03:20:04;6.70;;;2.77;;
4424;SDS011;2225;53.568;13.266;2023-06-04T03:22:33;7.80;;;2.80;;
4424;SDS011;2225;53.568;13.266;2023-06-04T03:25:02;13.63;;;2.67;;
4424;SDS011;2225;53.568;13.266;2023-06-04T03:27:30;11.20;;;3.00;;
4424;SDS011;2225;53.568;13.266;2023-06-04T03:29:59;6.27;;;2.30;;
4424;SDS011;2225;53.568;13.266;2023-06-04T03:32:31;10.60;;;2.70;;
4424;SDS011;2225;53.568;13.266;2023-06-04T03:34:59;5.90;;;2.20;;
4424;SDS011;2225;53.568;13.266;2023-06-04T03:37:26;8.17;;;2.50;;
4424;SDS011;2225;53.568;13.266;2023-06-04T03:39:54;5.83;;;1.93;;
4424;SDS011;2225;53.568;13.266;2023-06-04T03:42:21;6.33;;;2.40;;
4424;SDS011;2225;53.568;13.266;2023-06-04T03:44:48;7.43;;;2.63;;
4424;SDS011;2225;53.568;13.266;2023-06-04T03:47:15;6.13;;;2.17;;
4424;SDS011;2225;53.568;13.266;2023-06-04T03:49:42;7.33;;;2.30;;
4424;SDS011;2225;53.568;13.266;2023-06-04T03:52:09;6.33;;;2.17;;
4424;SDS011;2225;53.568;13.266;2023-06-04T03:54:38;6.60;;;2.23;;
4424;SDS011;2225;53.568;13.266;2023-06-04T03:57:05;8.07;;;2.33;;
4424;SDS011;2225;53.568;13.266;2023-06-04T03:59:32;5.80;;;1.67;;
4424;SDS011;2225;53.568;13.266;2023-06-04T04:02:00;6.93;;;2.10;;
4424;SDS011;2225;53.568;13.266;2023-06-04T04:04:27;6.10;;;1.93;;
4424;SDS011;2225;53.568;13.266;2023-06-04T04:06:55;10.03;;;2.27;;
4424;SDS011;2225;53.568;13.266;2023-06-04T04:09:22;7.97;;;2.93;;
4424;SDS011;2225;53.568;13.266;2023-06-04T04:11:49;7.27;;;3.30;;
4424;SDS011;2225;53.568;13.266;2023-06-04T04:14:16;6.90;;;2.40;;
4424;SDS011;2225;53.568;13.266;2023-06-04T04:16:44;6.00;;;2.00;;
4424;SDS011;2225;53.568;13.266;2023-06-04T04:19:11;6.80;;;2.90;;
4424;SDS011;2225;53.568;13.266;2023-06-04T04:21:38;9.40;;;3.10;;
4424;SDS011;2225;53.568;13.266;2023-06-04T04:24:06;8.23;;;3.33;;
4424;SDS011;2225;53.568;13.266;2023-06-04T04:26:34;11.73;;;3.20;;
4424;SDS011;2225;53.568;13.266;2023-06-04T04:29:02;8.00;;;2.90;;
4424;SDS011;2225;53.568;13.266;2023-06-04T04:31:31;7.10;;;2.50;;
4424;SDS011;2225;53.568;13.266;2023-06-04T04:33:58;8.23;;;3.27;;
4424;SDS011;2225;53.568;13.266;2023-06-04T04:36:26;9.00;;;3.07;;
4424;SDS011;2225;53.568;13.266;2023-06-04T04:38:54;8.83;;;3.27;;
4424;SDS011;2225;53.568;13.266;2023-06-04T04:41:28;8.63;;;3.57;;
4424;SDS011;2225;53.568;13.266;2023-06-04T04:44:02;10.40;;;3.70;;
4424;SDS011;2225;53.568;13.266;2023-06-04T04:46:31;8.67;;;3.20;;
4424;SDS011;2225;53.568;13.266;2023-06-04T04:48:58;8.33;;;2.90;;
4424;SDS011;2225;53.568;13.266;2023-06-04T04:51:26;8.17;;;3.43;;
4424;SDS011;2225;53.568;13.266;2023-06-04T04:53:54;8.20;;;2.70;;
4424;SDS011;2225;53.568;13.266;2023-06-04T04:56:22;8.57;;;3.03;;
4424;SDS011;2225;53.568;13.266;2023-06-04T04:58:50;8.80;;;3.10;;
4424;SDS011;2225;53.568;13.266;2023-06-04T05:01:18;8.47;;;3.00;;
4424;SDS011;2225;53.568;13.266;2023-06-04T05:03:46;7.93;;;2.80;;
4424;SDS011;2225;53.568;13.266;2023-06-04T05:06:15;8.00;;;3.10;;
4424;SDS011;2225;53.568;13.266;2023-06-04T05:08:42;8.40;;;3.50;;
4424;SDS011;2225;53.568;13.266;2023-06-04T05:11:11;9.60;;;3.07;;
4424;SDS011;2225;53.568;13.266;2023-06-04T05:13:39;11.80;;;3.20;;
4424;SDS011;2225;53.568;13.266;2023-06-04T05:16:11;7.60;;;3.00;;
4424;SDS011;2225;53.568;13.266;2023-06-04T05:18:41;7.27;;;2.70;;
4424;SDS011;2225;53.568;13.266;2023-06-04T05:21:14;10.90;;;2.90;;
4424;SDS011;2225;53.568;13.266;2023-06-04T05:23:46;7.60;;;2.83;;
4424;SDS011;2225;53.568;13.266;2023-06-04T05:26:16;8.60;;;3.13;;
4424;SDS011;2225;53.568;13.266;2023-06-04T05:28:44;11.30;;;2.57;;
4424;SDS011;2225;53.568;13.266;2023-06-04T05:31:13;10.30;;;2.73;;
4424;SDS011;2225;53.568;13.266;2023-06-04T05:33:42;10.53;;;2.10;;
4424;SDS011;2225;53.568;13.266;2023-06-04T05:36:13;5.47;;;1.90;;
4424;SDS011;2225;53.568;13.266;2023-06-04T05:38:47;9.33;;;2.87;;
4424;SDS011;2225;53.568;13.266;2023-06-04T05:41:16;8.17;;;2.60;;
4424;SDS011;2225;53.568;13.266;2023-06-04T05:43:43;8.80;;;3.60;;
4424;SDS011;2225;53.568;13.266;2023-06-04T05:46:14;7.93;;;2.70;;
4424;SDS011;2225;53.568;13.266;2023-06-04T05:48:42;6.60;;;2.27;;
4424;SDS011;2225;53.568;13.266;2023-06-04T05:51:10;6.60;;;2.53;;
4424;SDS011;2225;53.568;13.266;2023-06-04T05:53:40;6.70;;;2.10;;
4424;SDS011;2225;53.568;13.266;2023-06-04T05:56:07;6.00;;;2.17;;
4424;SDS011;2225;53.568;13.266;2023-06-04T05:58:34;7.30;;;2.60;;
4424;SDS011;2225;53.568;13.266;2023-06-04T06:01:03;5.83;;;2.20;;
4424;SDS011;2225;53.568;13.266;2023-06-04T06:03:30;7.50;;;2.60;;
4424;SDS011;2225;53.568;13.266;2023-06-04T06:05:58;7.53;;;2.10;;
4424;SDS011;2225;53.568;13.266;2023-06-04T06:08:26;10.33;;;2.57;;
4424;SDS011;2225;53.568;13.266;2023-06-04T06:10:54;6.57;;;2.40;;
4424;SDS011;2225;53.568;13.266;2023-06-04T06:13:22;8.37;;;2.63;;
4424;SDS011;2225;53.568;13.266;2023-06-04T06:15:49;7.43;;;2.83;;
4424;SDS011;2225;53.568;13.266;2023-06-04T06:18:16;8.70;;;2.97;;
4424;SDS011;2225;53.568;13.266;2023-06-04T06:20:43;7.70;;;3.20;;
4424;SDS011;2225;53.568;13.266;2023-06-04T06:23:10;7.80;;;2.80;;
4424;SDS011;2225;53.568;13.266;2023-06-04T06:25:40;7.83;;;2.97;;
4424;SDS011;2225;53.568;13.266;2023-06-04T06:28:14;15.03;;;3.53;;
4424;SDS011;2225;53.568;13.266;2023-06-04T06:30:43;10.33;;;2.90;;
4424;SDS011;2225;53.568;13.266;2023-06-04T06:33:10;7.70;;;3.07;;
4424;SDS011;2225;53.568;13.266;2023-06-04T06:35:38;10.10;;;2.90;;
4424;SDS011;2225;53.568;13.266;2023-06-04T06:38:06;7.07;;;2.47;;
4424;SDS011;2225;53.568;13.266;2023-06-04T06:40:32;6.47;;;2.30;;
4424;SDS011;2225;53.568;13.266;2023-06-04T06:42:59;7.87;;;2.70;;
4424;SDS011;2225;53.568;13.266;2023-06-04T06:45:26;9.00;;;3.27;;
4424;SDS011;2225;53.568;13.266;2023-06-04T06:47:53;15.63;;;3.10;;
4424;SDS011;2225;53.568;13.266;2023-06-04T06:50:20;9.13;;;3.30;;
4424;SDS011;2225;53.568;13.266;2023-06-04T06:52:47;8.20;;;2.57;;
4424;SDS011;2225;53.568;13.266;2023-06-04T06:55:14;6.50;;;2.50;;
4424;SDS011;2225;53.568;13.266;2023-06-04T06:57:41;13.40;;;2.67;;
4424;SDS011;2225;53.568;13.266;2023-06-04T07:00:09;7.87;;;2.53;;
4424;SDS011;2225;53.568;13.266;2023-06-04T07:02:37;9.97;;;2.77;;
4424;SDS011;2225;53.568;13.266;2023-06-04T07:05:04;9.20;;;2.87;;
4424;SDS011;2225;53.568;13.266;2023-06-04T07:07:31;7.50;;;2.40;;
4424;SDS011;2225;53.568;13.266;2023-06-04T07:09:58;7.70;;;2.63;;
4424;SDS011;2225;53.568;13.266;2023-06-04T07:12:26;10.63;;;2.67;;
4424;SDS011;2225;53.568;13.266;2023-06-04T07:14:53;6.33;;;2.20;;
4424;SDS011;2225;53.568;13.266;2023-06-04T07:17:19;7.47;;;2.40;;
4424;SDS011;2225;53.568;13.266;2023-06-04T07:19:46;8.10;;;3.00;;
4424;SDS011;2225;53.568;13.266;2023-06-04T07:22:13;8.90;;;2.20;;
4424;SDS011;2225;53.568;13.266;2023-06-04T07:24:42;6.17;;;1.80;;
4424;SDS011;2225;53.568;13.266;2023-06-04T07:27:10;7.50;;;2.47;;
4424;SDS011;2225;53.568;13.266;2023-06-04T07:29:42;6.33;;;2.33;;
4424;SDS011;2225;53.568;13.266;2023-06-04T07:32:13;7.93;;;1.50;;
4424;SDS011;2225;53.568;13.266;2023-06-04T07:34:40;6.60;;;1.80;;
4424;SDS011;2225;53.568;13.266;2023-06-04T07:37:07;6.03;;;1.93;;
4424;SDS011;2225;53.568;13.266;2023-06-04T07:39:35;9.80;;;1.53;;
4424;SDS011;2225;53.568;13.266;2023-06-04T07:42:04;6.70;;;1.60;;
4424;SDS011;2225;53.568;13.266;2023-06-04T07:44:31;5.87;;;1.40;;
4424;SDS011;2225;53.568;13.266;2023-06-04T07:46:58;10.50;;;1.70;;
4424;SDS011;2225;53.568;13.266;2023-06-04T07:49:25;6.40;;;1.87;;
4424;SDS011;2225;53.568;13.266;2023-06-04T07:51:52;5.67;;;1.33;;
4424;SDS011;2225;53.568;13.266;2023-06-04T07:54:20;6.67;;;1.70;;
4424;SDS011;2225;53.568;13.266;2023-06-04T07:56:47;6.20;;;1.60;;
4424;SDS011;2225;53.568;13.266;2023-06-04T07:59:14;7.37;;;1.43;;
4424;SDS011;2225;53.568;13.266;2023-06-04T08:01:41;8.73;;;1.83;;
4424;SDS011;2225;53.568;13.266;2023-06-04T08:04:07;9.83;;;2.03;;
4424;SDS011;2225;53.568;13.266;2023-06-04T08:06:35;5.97;;;1.70;;
4424;SDS011;2225;53.568;13.266;2023-06-04T08:09:02;5.37;;;1.77;;
4424;SDS011;2225;53.568;13.266;2023-06-04T08:11:29;6.07;;;1.53;;
4424;SDS011;2225;53.568;13.266;2023-06-04T08:13:56;5.50;;;1.40;;
4424;SDS011;2225;53.568;13.266;2023-06-04T08:16:23;4.80;;;1.03;;
4424;SDS011;2225;53.568;13.266;2023-06-04T08:18:50;4.97;;;1.10;;
4424;SDS011;2225;53.568;13.266;2023-06-04T08:21:25;7.63;;;1.03;;
4424;SDS011;2225;53.568;13.266;2023-06-04T08:23:53;6.10;;;1.73;;
4424;SDS011;2225;53.568;13.266;2023-06-04T08:26:21;4.77;;;1.20;;
4424;SDS011;2225;53.568;13.266;2023-06-04T08:28:49;5.20;;;1.30;;
4424;SDS011;2225;53.568;13.266;2023-06-04T08:31:17;4.63;;;1.10;;
4424;SDS011;2225;53.568;13.266;2023-06-04T08:33:47;4.30;;;0.90;;
4424;SDS011;2225;53.568;13.266;2023-06-04T08:36:14;7.40;;;1.33;;
4424;SDS011;2225;53.568;13.266;2023-06-04T08:38:42;4.80;;;1.33;;
4424;SDS011;2225;53.568;13.266;2023-06-04T08:41:20;6.73;;;1.23;;
4424;SDS011;2225;53.568;13.266;2023-06-04T08:43:55;5.50;;;1.27;;
4424;SDS011;2225;53.568;13.266;2023-06-04T08:46:28;5.90;;;1.40;;
4424;SDS011;2225;53.568;13.266;2023-06-04T08:49:02;7.30;;;1.27;;
4424;SDS011;2225;53.568;13.266;2023-06-04T08:51:33;6.67;;;1.13;;
4424;SDS011;2225;53.568;13.266;2023-06-04T08:54:04;5.43;;;1.40;;
4424;SDS011;2225;53.568;13.266;2023-06-04T08:56:32;5.60;;;1.53;;
4424;SDS011;2225;53.568;13.266;2023-06-04T08:59:00;5.10;;;1.20;;
4424;SDS011;2225;53.568;13.266;2023-06-04T09:01:34;4.80;;;1.33;;
4424;SDS011;2225;53.568;13.266;2023-06-04T09:04:04;4.93;;;1.27;;
4424;SDS011;2225;53.568;13.266;2023-06-04T09:06:36;5.60;;;1.40;;
4424;SDS011;2225;53.568;13.266;2023-06-04T09:09:05;5.93;;;1.53;;
4424;SDS011;2225;53.568;13.266;2023-06-04T09:11:41;8.17;;;1.57;;
4424;SDS011;2225;53.568;13.266;2023-06-04T09:14:15;6.00;;;1.40;;
4424;SDS011;2225;53.568;13.266;2023-06-04T09:19:17;7.17;;;1.63;;
4424;SDS011;2225;53.568;13.266;2023-06-04T09:21:51;7.03;;;1.50;;
4424;SDS011;2225;53.568;13.266;2023-06-04T09:24:22;5.10;;;1.50;;
4424;SDS011;2225;53.568;13.266;2023-06-04T09:27:09;5.83;;;1.50;;
4424;SDS011;2225;53.568;13.266;2023-06-04T09:29:48;5.10;;;1.27;;
4424;SDS011;2225;53.568;13.266;2023-06-04T09:32:20;6.40;;;1.63;;
4424;SDS011;2225;53.568;13.266;2023-06-04T09:35:08;5.40;;;1.77;;
4424;SDS011;2225;53.568;13.266;2023-06-04T09:37:42;5.50;;;1.47;;
4424;SDS011;2225;53.568;13.266;2023-06-04T09:40:34;5.30;;;1.50;;
4424;SDS011;2225;53.568;13.266;2023-06-04T09:43:05;6.30;;;1.70;;
4424;SDS011;2225;53.568;13.266;2023-06-04T09:45:34;5.27;;;1.40;;
4424;SDS011;2225;53.568;13.266;2023-06-04T09:48:02;6.63;;;1.40;;
4424;SDS011;2225;53.568;13.266;2023-06-04T09:50:35;6.37;;;1.37;;
4424;SDS011;2225;53.568;13.266;2023-06-04T09:53:15;4.97;;;1.40;;
4424;SDS011;2225;53.568;13.266;2023-06-04T09:55:55;6.10;;;1.33;;
4424;SDS011;2225;53.568;13.266;2023-06-04T09:58:27;5.60;;;1.33;;
4424;SDS011;2225;53.568;13.266;2023-06-04T10:00:55;4.93;;;1.20;;
4424;SDS011;2225;53.568;13.266;2023-06-04T10:03:24;5.53;;;1.50;;
4424;SDS011;2225;53.568;13.266;2023-06-04T10:05:54;5.70;;;1.53;;
4424;SDS011;2225;53.568;13.266;2023-06-04T10:08:23;5.20;;;1.50;;
4424;SDS011;2225;53.568;13.266;2023-06-04T10:10:56;10.40;;;1.47;;
4424;SDS011;2225;53.568;13.266;2023-06-04T10:13:35;4.60;;;1.30;;
4424;SDS011;2225;53.568;13.266;2023-06-04T10:16:28;6.40;;;1.57;;
4424;SDS011;2225;53.568;13.266;2023-06-04T10:19:00;7.60;;;1.47;;
4424;SDS011;2225;53.568;13.266;2023-06-04T10:21:28;5.83;;;1.50;;
4424;SDS011;2225;53.568;13.266;2023-06-04T10:24:01;5.47;;;1.43;;
4424;SDS011;2225;53.568;13.266;2023-06-04T10:26:28;4.90;;;1.27;;
4424;SDS011;2225;53.568;13.266;2023-06-04T10:28:56;4.60;;;1.30;;
4424;SDS011;2225;53.568;13.266;2023-06-04T10:31:24;4.90;;;1.30;;
4424;SDS011;2225;53.568;13.266;2023-06-04T10:33:55;5.17;;;1.53;;
4424;SDS011;2225;53.568;13.266;2023-06-04T10:36:23;5.97;;;1.60;;
4424;SDS011;2225;53.568;13.266;2023-06-04T10:38:52;5.67;;;1.77;;
4424;SDS011;2225;53.568;13.266;2023-06-04T10:41:22;4.27;;;1.13;;
4424;SDS011;2225;53.568;13.266;2023-06-04T10:43:51;4.60;;;1.23;;
4424;SDS011;2225;53.568;13.266;2023-06-04T10:46:36;8.13;;;1.13;;
4424;SDS011;2225;53.568;13.266;2023-06-04T10:49:08;6.50;;;1.20;;
4424;SDS011;2225;53.568;13.266;2023-06-04T10:51:41;5.10;;;1.50;;
4424;SDS011;2225;53.568;13.266;2023-06-04T10:54:09;6.67;;;2.20;;
4424;SDS011;2225;53.568;13.266;2023-06-04T10:56:36;4.77;;;1.10;;
4424;SDS011;2225;53.568;13.266;2023-06-04T10:59:14;7.95;;;1.38;;
4424;SDS011;2225;53.568;13.266;2023-06-04T11:01:43;4.40;;;1.00;;
4424;SDS011;2225;53.568;13.266;2023-06-04T11:04:23;5.33;;;1.23;;
4424;SDS011;2225;53.568;13.266;2023-06-04T11:07:02;4.30;;;1.30;;
4424;SDS011;2225;53.568;13.266;2023-06-04T11:09:31;4.50;;;0.97;;
4424;SDS011;2225;53.568;13.266;2023-06-04T11:12:00;4.50;;;1.33;;
4424;SDS011;2225;53.568;13.266;2023-06-04T11:14:31;5.30;;;1.50;;
4424;SDS011;2225;53.568;13.266;2023-06-04T11:17:08;7.33;;;1.30;;
4424;SDS011;2225;53.568;13.266;2023-06-04T11:19:41;4.93;;;1.10;;
4424;SDS011;2225;53.568;13.266;2023-06-04T11:22:10;5.03;;;1.57;;
4424;SDS011;2225;53.568;13.266;2023-06-04T11:24:40;7.03;;;1.33;;
4424;SDS011;2225;53.568;13.266;2023-06-04T11:27:07;6.20;;;1.53;;
4424;SDS011;2225;53.568;13.266;2023-06-04T11:29:50;5.40;;;1.30;;
4424;SDS011;2225;53.568;13.266;2023-06-04T11:32:23;4.70;;;1.40;;
4424;SDS011;2225;53.568;13.266;2023-06-04T11:34:51;5.07;;;1.23;;
4424;SDS011;2225;53.568;13.266;2023-06-04T11:37:28;5.53;;;1.33;;
4424;SDS011;2225;53.568;13.266;2023-06-04T11:39:58;4.37;;;1.10;;
4424;SDS011;2225;53.568;13.266;2023-06-04T11:42:27;4.70;;;1.30;;
4424;SDS011;2225;53.568;13.266;2023-06-04T11:44:56;4.60;;;1.10;;
4424;SDS011;2225;53.568;13.266;2023-06-04T11:47:24;4.63;;;1.10;;
4424;SDS011;2225;53.568;13.266;2023-06-04T11:49:57;4.67;;;1.20;;
4424;SDS011;2225;53.568;13.266;2023-06-04T11:52:25;4.33;;;1.00;;
4424;SDS011;2225;53.568;13.266;2023-06-04T11:54:53;4.90;;;1.50;;
4424;SDS011;2225;53.568;13.266;2023-06-04T11:57:21;6.47;;;1.50;;
4424;SDS011;2225;53.568;13.266;2023-06-04T11:59:48;5.90;;;1.43;;
4424;SDS011;2225;53.568;13.266;2023-06-04T12:02:15;7.20;;;1.20;;
4424;SDS011;2225;53.568;13.266;2023-06-04T12:04:42;5.43;;;1.50;;
4424;SDS011;2225;53.568;13.266;2023-06-04T12:07:09;4.17;;;1.20;;
4424;SDS011;2225;53.568;13.266;2023-06-04T12:09:37;4.73;;;1.40;;
4424;SDS011;2225;53.568;13.266;2023-06-04T12:12:06;4.80;;;1.60;;
4424;SDS011;2225;53.568;13.266;2023-06-04T12:14:34;4.70;;;1.30;;
4424;SDS011;2225;53.568;13.266;2023-06-04T12:17:02;4.30;;;1.30;;
4424;SDS011;2225;53.568;13.266;2023-06-04T12:19:44;6.77;;;1.63;;
4424;SDS011;2225;53.568;13.266;2023-06-04T12:22:16;4.50;;;1.40;;
4424;SDS011;2225;53.568;13.266;2023-06-04T12:24:47;7.20;;;1.63;;
4424;SDS011;2225;53.568;13.266;2023-06-04T12:27:23;4.43;;;1.10;;
4424;SDS011;2225;53.568;13.266;2023-06-04T12:29:57;8.80;;;1.20;;
4424;SDS011;2225;53.568;13.266;2023-06-04T12:32:26;8.40;;;1.20;;
4424;SDS011;2225;53.568;13.266;2023-06-04T12:34:54;5.07;;;1.50;;
4424;SDS011;2225;53.568;13.266;2023-06-04T12:37:22;4.90;;;1.40;;
4424;SDS011;2225;53.568;13.266;2023-06-04T12:39:51;4.20;;;1.27;;
4424;SDS011;2225;53.568;13.266;2023-06-04T12:42:19;4.80;;;1.30;;
4424;SDS011;2225;53.568;13.266;2023-06-04T12:44:46;4.67;;;1.10;;
4424;SDS011;2225;53.568;13.266;2023-06-04T12:47:13;4.40;;;1.13;;
4424;SDS011;2225;53.568;13.266;2023-06-04T12:49:42;5.53;;;1.10;;
4424;SDS011;2225;53.568;13.266;2023-06-04T12:52:10;5.03;;;1.30;;
4424;SDS011;2225;53.568;13.266;2023-06-04T12:54:37;4.47;;;1.30;;
4424;SDS011;2225;53.568;13.266;2023-06-04T12:57:04;6.10;;;1.30;;
4424;SDS011;2225;53.568;13.266;2023-06-04T12:59:31;4.10;;;1.00;;
4424;SDS011;2225;53.568;13.266;2023-06-04T13:01:58;4.50;;;1.23;;
4424;SDS011;2225;53.568;13.266;2023-06-04T13:04:25;4.80;;;1.50;;
4424;SDS011;2225;53.568;13.266;2023-06-04T13:06:52;5.20;;;1.00;;
4424;SDS011;2225;53.568;13.266;2023-06-04T13:09:25;4.30;;;1.03;;
4424;SDS011;2225;53.568;13.266;2023-06-04T13:11:55;6.87;;;1.40;;
4424;SDS011;2225;53.568;13.266;2023-06-04T13:14:22;4.30;;;1.30;;
4424;SDS011;2225;53.568;13.266;2023-06-04T13:16:49;4.40;;;1.37;;
4424;SDS011;2225;53.568;13.266;2023-06-04T13:19:18;4.30;;;1.27;;
4424;SDS011;2225;53.568;13.266;2023-06-04T13:21:47;5.47;;;1.50;;
4424;SDS011;2225;53.568;13.266;2023-06-04T13:24:14;5.83;;;0.97;;
4424;SDS011;2225;53.568;13.266;2023-06-04T13:26:41;4.70;;;1.53;;
4424;SDS011;2225;53.568;13.266;2023-06-04T13:29:08;8.27;;;1.27;;
4424;SDS011;2225;53.568;13.266;2023-06-04T13:31:36;4.50;;;1.50;;
4424;SDS011;2225;53.568;13.266;2023-06-04T13:34:05;5.63;;;1.60;;
4424;SDS011;2225;53.568;13.266;2023-06-04T13:36:52;4.90;;;1.33;;
4424;SDS011;2225;53.568;13.266;2023-06-04T13:39:21;4.73;;;1.33;;
4424;SDS011;2225;53.568;13.266;2023-06-04T13:41:48;4.30;;;1.33;;
4424;SDS011;2225;53.568;13.266;2023-06-04T13:44:15;4.80;;;1.60;;
4424;SDS011;2225;53.568;13.266;2023-06-04T13:46:42;5.73;;;1.60;;
4424;SDS011;2225;53.568;13.266;2023-06-04T13:49:09;5.13;;;1.37;;
4424;SDS011;2225;53.568;13.266;2023-06-04T13:51:36;4.37;;;1.17;;
4424;SDS011;2225;53.568;13.266;2023-06-04T13:54:03;5.47;;;1.33;;
4424;SDS011;2225;53.568;13.266;2023-06-04T13:56:30;4.37;;;1.30;;
4424;SDS011;2225;53.568;13.266;2023-06-04T13:58:57;5.00;;;1.70;;
4424;SDS011;2225;53.568;13.266;2023-06-04T14:01:24;4.73;;;1.67;;
4424;SDS011;2225;53.568;13.266;2023-06-04T14:03:51;4.53;;;1.30;;
4424;SDS011;2225;53.568;13.266;2023-06-04T14:06:19;4.53;;;1.00;;
4424;SDS011;2225;53.568;13.266;2023-06-04T14:08:46;4.90;;;1.30;;
4424;SDS011;2225;53.568;13.266;2023-06-04T14:11:13;5.20;;;1.47;;
4424;SDS011;2225;53.568;13.266;2023-06-04T14:13:40;5.40;;;1.20;;
4424;SDS011;2225;53.568;13.266;2023-06-04T14:16:11;4.30;;;1.13;;
4424;SDS011;2225;53.568;13.266;2023-06-04T14:18:38;4.20;;;1.30;;
4424;SDS011;2225;53.568;13.266;2023-06-04T14:21:05;6.43;;;1.70;;
4424;SDS011;2225;53.568;13.266;2023-06-04T14:23:32;4.77;;;1.60;;
4424;SDS011;2225;53.568;13.266;2023-06-04T14:25:59;8.03;;;1.60;;
4424;SDS011;2225;53.568;13.266;2023-06-04T14:28:26;6.47;;;1.20;;
4424;SDS011;2225;53.568;13.266;2023-06-04T14:30:53;4.40;;;1.30;;
4424;SDS011;2225;53.568;13.266;2023-06-04T14:33:20;5.50;;;1.47;;
4424;SDS011;2225;53.568;13.266;2023-06-04T14:35:47;4.83;;;1.30;;
4424;SDS011;2225;53.568;13.266;2023-06-04T14:38:14;5.63;;;1.63;;
4424;SDS011;2225;53.568;13.266;2023-06-04T14:40:43;4.93;;;1.47;;
4424;SDS011;2225;53.568;13.266;2023-06-04T14:43:11;6.60;;;1.67;;
4424;SDS011;2225;53.568;13.266;2023-06-04T14:45:39;8.00;;;1.40;;
4424;SDS011;2225;53.568;13.266;2023-06-04T14:48:06;5.43;;;1.60;;
4424;SDS011;2225;53.568;13.266;2023-06-04T14:50:41;4.70;;;1.50;;
4424;SDS011;2225;53.568;13.266;2023-06-04T14:53:09;5.67;;;1.70;;
4424;SDS011;2225;53.568;13.266;2023-06-04T14:55:37;4.87;;;1.60;;
4424;SDS011;2225;53.568;13.266;2023-06-04T14:58:04;5.53;;;1.60;;
4424;SDS011;2225;53.568;13.266;2023-06-04T15:00:31;4.97;;;1.60;;
4424;SDS011;2225;53.568;13.266;2023-06-04T15:02:59;12.43;;;1.80;;
4424;SDS011;2225;53.568;13.266;2023-06-04T15:05:29;4.93;;;1.50;;
4424;SDS011;2225;53.568;13.266;2023-06-04T15:07:57;10.60;;;1.77;;
4424;SDS011;2225;53.568;13.266;2023-06-04T15:10:25;4.37;;;1.27;;
4424;SDS011;2225;53.568;13.266;2023-06-04T15:12:52;4.83;;;1.37;;
4424;SDS011;2225;53.568;13.266;2023-06-04T15:15:19;5.03;;;1.50;;
4424;SDS011;2225;53.568;13.266;2023-06-04T15:17:47;4.47;;;1.43;;
4424;SDS011;2225;53.568;13.266;2023-06-04T15:20:15;5.30;;;1.50;;
4424;SDS011;2225;53.568;13.266;2023-06-04T15:22:42;5.33;;;1.30;;